sensor_id;sensor_type;location;lat;lon;timestamp;temperature;humidity
20487;DHT22;10402;49.012;8.370;2023-04-24T00:00:54;14.00;79.70
20487;DHT22;10402;49.012;8.370;2023-04-24T00:03:24;14.00;79.70
20487;DHT22;10402;49.012;8.370;2023-04-24T00:05:51;14.00;79.70
20487;DHT22;10402;49.012;8.370;2023-04-24T00:08:17;14.00;79.80
20487;DHT22;10402;49.012;8.370;2023-04-24T00:10:43;14.00;79.60
20487;DHT22;10402;49.012;8.370;2023-04-24T00:13:09;14.00;79.60
20487;DHT22;10402;49.012;8.370;2023-04-24T00:15:34;14.10;79.60
20487;DHT22;10402;49.012;8.370;2023-04-24T00:18:00;14.10;79.40
20487;DHT22;10402;49.012;8.370;2023-04-24T00:20:27;14.10;79.40
20487;DHT22;10402;49.012;8.370;2023-04-24T00:22:54;14.10;79.40
20487;DHT22;10402;49.012;8.370;2023-04-24T00:25:20;14.10;79.50
20487;DHT22;10402;49.012;8.370;2023-04-24T00:27:46;14.00;79.30
20487;DHT22;10402;49.012;8.370;2023-04-24T00:30:11;14.00;79.40
20487;DHT22;10402;49.012;8.370;2023-04-24T00:32:37;14.00;79.30
20487;DHT22;10402;49.012;8.370;2023-04-24T00:35:03;14.00;79.30
20487;DHT22;10402;49.012;8.370;2023-04-24T00:37:28;14.00;79.30
20487;DHT22;10402;49.012;8.370;2023-04-24T00:39:54;14.00;79.30
20487;DHT22;10402;49.012;8.370;2023-04-24T00:42:20;14.00;79.30
20487;DHT22;10402;49.012;8.370;2023-04-24T00:44:46;14.10;79.30
20487;DHT22;10402;49.012;8.370;2023-04-24T00:47:12;14.10;79.00
20487;DHT22;10402;49.012;8.370;2023-04-24T00:49:38;14.10;79.00
20487;DHT22;10402;49.012;8.370;2023-04-24T00:52:04;14.10;78.90
20487;DHT22;10402;49.012;8.370;2023-04-24T00:54:34;14.10;78.90
20487;DHT22;10402;49.012;8.370;2023-04-24T00:57:00;14.10;78.90
20487;DHT22;10402;49.012;8.370;2023-04-24T00:59:26;14.20;79.00
20487;DHT22;10402;49.012;8.370;2023-04-24T01:01:52;14.20;78.90
20487;DHT22;10402;49.012;8.370;2023-04-24T01:04:18;14.10;78.90
20487;DHT22;10402;49.012;8.370;2023-04-24T01:06:44;14.10;79.00
20487;DHT22;10402;49.012;8.370;2023-04-24T01:09:12;14.00;79.10
20487;DHT22;10402;49.012;8.370;2023-04-24T01:11:38;14.00;79.30
20487;DHT22;10402;49.012;8.370;2023-04-24T01:14:03;13.90;79.40
20487;DHT22;10402;49.012;8.370;2023-04-24T01:16:29;14.00;79.50
20487;DHT22;10402;49.012;8.370;2023-04-24T01:18:55;13.90;79.50
20487;DHT22;10402;49.012;8.370;2023-04-24T01:21:21;14.00;79.60
20487;DHT22;10402;49.012;8.370;2023-04-24T01:23:48;14.00;79.60
20487;DHT22;10402;49.012;8.370;2023-04-24T01:26:17;13.90;79.40
20487;DHT22;10402;49.012;8.370;2023-04-24T01:28:43;13.90;79.60
20487;DHT22;10402;49.012;8.370;2023-04-24T01:31:08;13.90;79.70
20487;DHT22;10402;49.012;8.370;2023-04-24T01:33:34;13.90;79.70
20487;DHT22;10402;49.012;8.370;2023-04-24T01:36:00;13.90;79.80
20487;DHT22;10402;49.012;8.370;2023-04-24T01:38:26;13.90;79.70
20487;DHT22;10402;49.012;8.370;2023-04-24T01:40:52;13.90;79.80
20487;DHT22;10402;49.012;8.370;2023-04-24T01:43:18;13.90;79.70
20487;DHT22;10402;49.012;8.370;2023-04-24T01:45:44;13.90;79.70
20487;DHT22;10402;49.012;8.370;2023-04-24T01:48:10;13.90;80.00
20487;DHT22;10402;49.012;8.370;2023-04-24T01:50:36;13.90;80.10
20487;DHT22;10402;49.012;8.370;2023-04-24T01:53:02;13.90;80.20
20487;DHT22;10402;49.012;8.370;2023-04-24T01:55:27;13.90;80.30
20487;DHT22;10402;49.012;8.370;2023-04-24T01:57:55;13.80;80.40
20487;DHT22;10402;49.012;8.370;2023-04-24T02:00:21;13.70;80.40
20487;DHT22;10402;49.012;8.370;2023-04-24T02:02:47;13.70;80.60
20487;DHT22;10402;49.012;8.370;2023-04-24T02:05:12;13.70;80.80
20487;DHT22;10402;49.012;8.370;2023-04-24T02:07:38;13.70;80.90
20487;DHT22;10402;49.012;8.370;2023-04-24T02:10:03;13.70;80.90
20487;DHT22;10402;49.012;8.370;2023-04-24T02:12:30;13.60;81.00
20487;DHT22;10402;49.012;8.370;2023-04-24T02:14:55;13.60;81.10
20487;DHT22;10402;49.012;8.370;2023-04-24T02:17:21;13.60;81.20
20487;DHT22;10402;49.012;8.370;2023-04-24T02:19:47;13.60;81.30
20487;DHT22;10402;49.012;8.370;2023-04-24T02:22:12;13.60;81.20
20487;DHT22;10402;49.012;8.370;2023-04-24T02:24:38;13.60;81.30
20487;DHT22;10402;49.012;8.370;2023-04-24T02:27:04;13.60;81.50
20487;DHT22;10402;49.012;8.370;2023-04-24T02:29:30;13.60;81.60
20487;DHT22;10402;49.012;8.370;2023-04-24T02:31:56;13.60;81.70
20487;DHT22;10402;49.012;8.370;2023-04-24T02:34:21;13.60;81.70
20487;DHT22;10402;49.012;8.370;2023-04-24T02:36:48;13.70;81.80
20487;DHT22;10402;49.012;8.370;2023-04-24T02:39:14;13.70;81.80
20487;DHT22;10402;49.012;8.370;2023-04-24T02:41:42;13.70;81.60
20487;DHT22;10402;49.012;8.370;2023-04-24T02:44:07;13.70;82.60
20487;DHT22;10402;49.012;8.370;2023-04-24T02:46:33;13.70;81.80
20487;DHT22;10402;49.012;8.370;2023-04-24T02:48:58;13.70;82.00
20487;DHT22;10402;49.012;8.370;2023-04-24T02:51:24;13.70;82.10
20487;DHT22;10402;49.012;8.370;2023-04-24T02:53:50;13.70;82.10
20487;DHT22;10402;49.012;8.370;2023-04-24T02:56:15;13.70;82.20
20487;DHT22;10402;49.012;8.370;2023-04-24T02:58:41;13.70;82.60
20487;DHT22;10402;49.012;8.370;2023-04-24T03:01:07;13.70;82.70
20487;DHT22;10402;49.012;8.370;2023-04-24T03:03:35;13.60;83.00
20487;DHT22;10402;49.012;8.370;2023-04-24T03:06:00;13.60;83.10
20487;DHT22;10402;49.012;8.370;2023-04-24T03:08:26;13.50;83.40
20487;DHT22;10402;49.012;8.370;2023-04-24T03:10:52;13.40;83.70
20487;DHT22;10402;49.012;8.370;2023-04-24T03:13:18;13.40;83.90
20487;DHT22;10402;49.012;8.370;2023-04-24T03:15:43;13.30;84.10
20487;DHT22;10402;49.012;8.370;2023-04-24T03:18:10;13.20;84.20
20487;DHT22;10402;49.012;8.370;2023-04-24T03:20:35;13.20;84.60
20487;DHT22;10402;49.012;8.370;2023-04-24T03:23:02;13.10;84.70
20487;DHT22;10402;49.012;8.370;2023-04-24T03:25:28;13.10;85.00
20487;DHT22;10402;49.012;8.370;2023-04-24T03:27:54;13.00;85.00
20487;DHT22;10402;49.012;8.370;2023-04-24T03:30:20;13.00;85.30
20487;DHT22;10402;49.012;8.370;2023-04-24T03:32:45;12.90;85.40
20487;DHT22;10402;49.012;8.370;2023-04-24T03:35:11;12.90;85.70
20487;DHT22;10402;49.012;8.370;2023-04-24T03:37:36;13.00;85.80
20487;DHT22;10402;49.012;8.370;2023-04-24T03:40:02;12.90;85.80
20487;DHT22;10402;49.012;8.370;2023-04-24T03:42:28;12.90;85.80
20487;DHT22;10402;49.012;8.370;2023-04-24T03:44:53;12.80;85.80
20487;DHT22;10402;49.012;8.370;2023-04-24T03:47:19;12.80;86.00
20487;DHT22;10402;49.012;8.370;2023-04-24T03:49:45;12.80;86.00
20487;DHT22;10402;49.012;8.370;2023-04-24T03:52:10;12.80;86.00
20487;DHT22;10402;49.012;8.370;2023-04-24T03:54:36;12.80;86.00
20487;DHT22;10402;49.012;8.370;2023-04-24T03:57:01;12.80;86.20
20487;DHT22;10402;49.012;8.370;2023-04-24T03:59:27;12.80;86.30
20487;DHT22;10402;49.012;8.370;2023-04-24T04:01:52;12.80;86.40
20487;DHT22;10402;49.012;8.370;2023-04-24T04:04:18;12.70;86.50
20487;DHT22;10402;49.012;8.370;2023-04-24T04:06:43;12.60;86.60
20487;DHT22;10402;49.012;8.370;2023-04-24T04:09:09;12.60;87.70
20487;DHT22;10402;49.012;8.370;2023-04-24T04:11:35;12.60;87.10
20487;DHT22;10402;49.012;8.370;2023-04-24T04:14:01;12.60;87.20
20487;DHT22;10402;49.012;8.370;2023-04-24T04:16:27;12.60;87.30
20487;DHT22;10402;49.012;8.370;2023-04-24T04:18:52;12.60;87.00
20487;DHT22;10402;49.012;8.370;2023-04-24T04:21:18;12.50;86.90
20487;DHT22;10402;49.012;8.370;2023-04-24T04:23:43;12.50;87.00
20487;DHT22;10402;49.012;8.370;2023-04-24T04:26:11;12.50;87.00
20487;DHT22;10402;49.012;8.370;2023-04-24T04:28:36;12.40;87.00
20487;DHT22;10402;49.012;8.370;2023-04-24T04:33:32;12.30;86.90
20487;DHT22;10402;49.012;8.370;2023-04-24T04:35:58;12.30;87.00
20487;DHT22;10402;49.012;8.370;2023-04-24T04:38:23;12.30;86.80
20487;DHT22;10402;49.012;8.370;2023-04-24T04:40:49;12.20;86.70
20487;DHT22;10402;49.012;8.370;2023-04-24T04:43:15;12.20;86.70
20487;DHT22;10402;49.012;8.370;2023-04-24T04:45:41;12.20;86.60
20487;DHT22;10402;49.012;8.370;2023-04-24T04:48:09;12.10;86.20
20487;DHT22;10402;49.012;8.370;2023-04-24T04:50:35;12.10;86.20
20487;DHT22;10402;49.012;8.370;2023-04-24T04:53:01;12.00;86.10
20487;DHT22;10402;49.012;8.370;2023-04-24T04:55:26;12.00;86.40
20487;DHT22;10402;49.012;8.370;2023-04-24T04:57:52;12.00;86.30
20487;DHT22;10402;49.012;8.370;2023-04-24T05:00:18;12.00;86.20
20487;DHT22;10402;49.012;8.370;2023-04-24T05:02:43;12.10;86.00
20487;DHT22;10402;49.012;8.370;2023-04-24T05:05:09;12.00;85.80
20487;DHT22;10402;49.012;8.370;2023-04-24T05:07:35;12.10;85.80
20487;DHT22;10402;49.012;8.370;2023-04-24T05:10:01;12.10;85.80
20487;DHT22;10402;49.012;8.370;2023-04-24T05:12:26;12.10;85.80
20487;DHT22;10402;49.012;8.370;2023-04-24T05:14:52;12.10;85.70
20487;DHT22;10402;49.012;8.370;2023-04-24T05:17:18;12.10;85.50
20487;DHT22;10402;49.012;8.370;2023-04-24T05:19:43;12.20;85.40
20487;DHT22;10402;49.012;8.370;2023-04-24T05:22:09;12.20;85.40
20487;DHT22;10402;49.012;8.370;2023-04-24T05:24:36;12.30;85.40
20487;DHT22;10402;49.012;8.370;2023-04-24T05:27:02;12.30;85.30
20487;DHT22;10402;49.012;8.370;2023-04-24T05:29:30;12.40;85.20
20487;DHT22;10402;49.012;8.370;2023-04-24T05:31:56;12.40;85.10
20487;DHT22;10402;49.012;8.370;2023-04-24T05:34:22;12.50;85.10
20487;DHT22;10402;49.012;8.370;2023-04-24T05:36:48;12.40;84.90
20487;DHT22;10402;49.012;8.370;2023-04-24T05:39:14;12.40;85.00
20487;DHT22;10402;49.012;8.370;2023-04-24T05:41:40;12.40;84.80
20487;DHT22;10402;49.012;8.370;2023-04-24T05:44:06;12.50;84.90
20487;DHT22;10402;49.012;8.370;2023-04-24T05:46:31;12.50;84.90
20487;DHT22;10402;49.012;8.370;2023-04-24T05:48:57;12.50;84.90
20487;DHT22;10402;49.012;8.370;2023-04-24T05:51:23;12.50;84.80
20487;DHT22;10402;49.012;8.370;2023-04-24T05:53:48;12.50;84.80
20487;DHT22;10402;49.012;8.370;2023-04-24T05:56:15;12.50;84.80
20487;DHT22;10402;49.012;8.370;2023-04-24T05:58:40;12.50;84.60
20487;DHT22;10402;49.012;8.370;2023-04-24T06:01:06;12.50;84.60
20487;DHT22;10402;49.012;8.370;2023-04-24T06:03:32;12.50;84.40
20487;DHT22;10402;49.012;8.370;2023-04-24T06:05:58;12.50;84.20
20487;DHT22;10402;49.012;8.370;2023-04-24T06:08:23;12.60;84.40
20487;DHT22;10402;49.012;8.370;2023-04-24T06:10:49;12.60;84.10
20487;DHT22;10402;49.012;8.370;2023-04-24T06:13:15;12.70;83.90
20487;DHT22;10402;49.012;8.370;2023-04-24T06:15:41;12.70;83.70
20487;DHT22;10402;49.012;8.370;2023-04-24T06:18:07;12.70;83.50
20487;DHT22;10402;49.012;8.370;2023-04-24T06:20:33;12.70;83.50
20487;DHT22;10402;49.012;8.370;2023-04-24T06:22:58;12.70;83.30
20487;DHT22;10402;49.012;8.370;2023-04-24T06:25:27;12.80;83.30
20487;DHT22;10402;49.012;8.370;2023-04-24T06:27:54;12.80;83.90
20487;DHT22;10402;49.012;8.370;2023-04-24T06:30:19;12.80;83.10
20487;DHT22;10402;49.012;8.370;2023-04-24T06:32:45;12.80;82.80
20487;DHT22;10402;49.012;8.370;2023-04-24T06:35:11;12.70;82.60
20487;DHT22;10402;49.012;8.370;2023-04-24T06:37:41;12.70;82.90
20487;DHT22;10402;49.012;8.370;2023-04-24T06:40:07;12.60;82.60
20487;DHT22;10402;49.012;8.370;2023-04-24T06:42:32;12.60;82.40
20487;DHT22;10402;49.012;8.370;2023-04-24T06:44:59;12.60;82.50
20487;DHT22;10402;49.012;8.370;2023-04-24T06:47:25;12.60;82.40
20487;DHT22;10402;49.012;8.370;2023-04-24T06:49:50;12.60;82.10
20487;DHT22;10402;49.012;8.370;2023-04-24T06:52:18;12.60;82.10
20487;DHT22;10402;49.012;8.370;2023-04-24T06:54:43;12.70;82.20
20487;DHT22;10402;49.012;8.370;2023-04-24T06:57:09;12.80;82.00
20487;DHT22;10402;49.012;8.370;2023-04-24T06:59:36;12.80;81.80
20487;DHT22;10402;49.012;8.370;2023-04-24T07:02:01;12.90;81.70
20487;DHT22;10402;49.012;8.370;2023-04-24T07:04:27;12.90;81.50
20487;DHT22;10402;49.012;8.370;2023-04-24T07:06:53;12.90;81.00
20487;DHT22;10402;49.012;8.370;2023-04-24T07:09:23;12.90;81.00
20487;DHT22;10402;49.012;8.370;2023-04-24T07:11:51;12.90;80.80
20487;DHT22;10402;49.012;8.370;2023-04-24T07:14:17;13.00;80.70
20487;DHT22;10402;49.012;8.370;2023-04-24T07:16:43;13.10;80.70
20487;DHT22;10402;49.012;8.370;2023-04-24T07:19:09;13.10;80.40
20487;DHT22;10402;49.012;8.370;2023-04-24T07:21:34;13.10;80.20
20487;DHT22;10402;49.012;8.370;2023-04-24T07:24:00;13.10;79.80
20487;DHT22;10402;49.012;8.370;2023-04-24T07:26:27;13.20;79.70
20487;DHT22;10402;49.012;8.370;2023-04-24T07:28:53;13.10;79.30
20487;DHT22;10402;49.012;8.370;2023-04-24T07:31:19;13.10;79.20
20487;DHT22;10402;49.012;8.370;2023-04-24T07:33:44;13.00;78.90
20487;DHT22;10402;49.012;8.370;2023-04-24T07:36:10;13.00;78.60
20487;DHT22;10402;49.012;8.370;2023-04-24T07:38:41;13.10;78.80
20487;DHT22;10402;49.012;8.370;2023-04-24T07:41:07;13.10;77.40
20487;DHT22;10402;49.012;8.370;2023-04-24T07:43:32;13.10;77.00
20487;DHT22;10402;49.012;8.370;2023-04-24T07:45:58;13.00;76.30
20487;DHT22;10402;49.012;8.370;2023-04-24T07:48:23;13.00;76.60
20487;DHT22;10402;49.012;8.370;2023-04-24T07:50:51;13.10;76.30
20487;DHT22;10402;49.012;8.370;2023-04-24T07:53:16;13.00;74.70
20487;DHT22;10402;49.012;8.370;2023-04-24T07:55:42;12.90;74.80
20487;DHT22;10402;49.012;8.370;2023-04-24T07:58:08;12.90;74.10
20487;DHT22;10402;49.012;8.370;2023-04-24T08:00:34;12.80;74.20
20487;DHT22;10402;49.012;8.370;2023-04-24T08:03:00;12.70;75.10
20487;DHT22;10402;49.012;8.370;2023-04-24T08:05:25;12.70;75.70
20487;DHT22;10402;49.012;8.370;2023-04-24T08:07:52;12.60;75.50
20487;DHT22;10402;49.012;8.370;2023-04-24T08:10:18;12.50;75.70
20487;DHT22;10402;49.012;8.370;2023-04-24T08:12:44;12.50;76.30
20487;DHT22;10402;49.012;8.370;2023-04-24T08:15:10;12.40;76.20
20487;DHT22;10402;49.012;8.370;2023-04-24T08:17:35;12.40;76.20
20487;DHT22;10402;49.012;8.370;2023-04-24T08:20:04;12.50;76.30
20487;DHT22;10402;49.012;8.370;2023-04-24T08:22:31;12.50;76.30
20487;DHT22;10402;49.012;8.370;2023-04-24T08:24:56;12.60;75.80
20487;DHT22;10402;49.012;8.370;2023-04-24T08:27:23;12.60;75.40
20487;DHT22;10402;49.012;8.370;2023-04-24T08:29:49;12.60;75.00
20487;DHT22;10402;49.012;8.370;2023-04-24T08:32:15;12.60;74.80
20487;DHT22;10402;49.012;8.370;2023-04-24T08:34:41;12.50;74.40
20487;DHT22;10402;49.012;8.370;2023-04-24T08:37:06;12.50;74.60
20487;DHT22;10402;49.012;8.370;2023-04-24T08:39:32;12.40;74.70
20487;DHT22;10402;49.012;8.370;2023-04-24T08:41:57;12.40;75.00
20487;DHT22;10402;49.012;8.370;2023-04-24T08:44:31;12.40;75.30
20487;DHT22;10402;49.012;8.370;2023-04-24T08:46:57;12.40;75.20
20487;DHT22;10402;49.012;8.370;2023-04-24T08:49:24;12.40;75.40
20487;DHT22;10402;49.012;8.370;2023-04-24T08:51:50;12.50;75.80
20487;DHT22;10402;49.012;8.370;2023-04-24T08:54:18;12.60;75.70
20487;DHT22;10402;49.012;8.370;2023-04-24T08:56:44;12.80;75.50
20487;DHT22;10402;49.012;8.370;2023-04-24T08:59:10;13.00;75.40
20487;DHT22;10402;49.012;8.370;2023-04-24T09:01:37;13.10;75.00
20487;DHT22;10402;49.012;8.370;2023-04-24T09:04:07;13.10;74.20
20487;DHT22;10402;49.012;8.370;2023-04-24T09:06:34;13.00;73.90
20487;DHT22;10402;49.012;8.370;2023-04-24T09:09:00;13.10;74.00
20487;DHT22;10402;49.012;8.370;2023-04-24T09:11:27;13.10;74.00
20487;DHT22;10402;49.012;8.370;2023-04-24T09:13:54;13.10;73.80
20487;DHT22;10402;49.012;8.370;2023-04-24T09:16:20;13.10;72.50
20487;DHT22;10402;49.012;8.370;2023-04-24T09:18:46;13.00;72.80
20487;DHT22;10402;49.012;8.370;2023-04-24T09:21:11;13.00;72.00
20487;DHT22;10402;49.012;8.370;2023-04-24T09:23:37;13.00;72.20
20487;DHT22;10402;49.012;8.370;2023-04-24T09:26:04;13.00;71.90
20487;DHT22;10402;49.012;8.370;2023-04-24T09:28:36;13.00;72.20
20487;DHT22;10402;49.012;8.370;2023-04-24T09:33:29;13.10;71.10
20487;DHT22;10402;49.012;8.370;2023-04-24T09:35:55;13.10;71.00
20487;DHT22;10402;49.012;8.370;2023-04-24T09:38:30;13.10;70.30
20487;DHT22;10402;49.012;8.370;2023-04-24T09:40:59;13.10;70.30
20487;DHT22;10402;49.012;8.370;2023-04-24T09:43:26;13.10;70.20
20487;DHT22;10402;49.012;8.370;2023-04-24T09:45:56;13.10;69.10
20487;DHT22;10402;49.012;8.370;2023-04-24T09:48:33;13.10;69.10
20487;DHT22;10402;49.012;8.370;2023-04-24T09:51:01;13.10;69.80
20487;DHT22;10402;49.012;8.370;2023-04-24T09:53:27;13.10;68.80
20487;DHT22;10402;49.012;8.370;2023-04-24T09:55:53;13.20;69.30
20487;DHT22;10402;49.012;8.370;2023-04-24T09:58:24;13.30;68.90
20487;DHT22;10402;49.012;8.370;2023-04-24T10:00:54;13.40;69.10
20487;DHT22;10402;49.012;8.370;2023-04-24T10:03:19;13.40;68.80
20487;DHT22;10402;49.012;8.370;2023-04-24T10:05:46;13.50;69.00
20487;DHT22;10402;49.012;8.370;2023-04-24T10:08:13;13.60;68.90
20487;DHT22;10402;49.012;8.370;2023-04-24T10:10:43;13.70;68.80
20487;DHT22;10402;49.012;8.370;2023-04-24T10:13:09;13.80;68.80
20487;DHT22;10402;49.012;8.370;2023-04-24T10:15:37;13.80;68.30
20487;DHT22;10402;49.012;8.370;2023-04-24T10:18:04;13.90;68.50
20487;DHT22;10402;49.012;8.370;2023-04-24T10:20:30;13.80;68.00
20487;DHT22;10402;49.012;8.370;2023-04-24T10:22:57;13.80;68.20
20487;DHT22;10402;49.012;8.370;2023-04-24T10:25:28;13.80;68.00
20487;DHT22;10402;49.012;8.370;2023-04-24T10:27:55;13.70;68.30
20487;DHT22;10402;49.012;8.370;2023-04-24T10:30:27;13.60;67.80
20487;DHT22;10402;49.012;8.370;2023-04-24T10:32:52;13.50;67.70
20487;DHT22;10402;49.012;8.370;2023-04-24T10:35:19;13.50;68.00
20487;DHT22;10402;49.012;8.370;2023-04-24T10:37:54;13.40;67.90
20487;DHT22;10402;49.012;8.370;2023-04-24T10:40:30;13.40;68.10
20487;DHT22;10402;49.012;8.370;2023-04-24T10:42:56;13.40;68.30
20487;DHT22;10402;49.012;8.370;2023-04-24T10:45:23;13.40;68.10
20487;DHT22;10402;49.012;8.370;2023-04-24T10:48:08;13.40;68.10
20487;DHT22;10402;49.012;8.370;2023-04-24T10:50:51;13.40;68.00
20487;DHT22;10402;49.012;8.370;2023-04-24T10:53:19;13.40;68.20
20487;DHT22;10402;49.012;8.370;2023-04-24T10:55:50;13.50;68.10
20487;DHT22;10402;49.012;8.370;2023-04-24T10:58:35;13.50;68.00
20487;DHT22;10402;49.012;8.370;2023-04-24T11:01:01;13.50;67.90
20487;DHT22;10402;49.012;8.370;2023-04-24T11:03:28;13.50;68.00
20487;DHT22;10402;49.012;8.370;2023-04-24T11:06:07;13.50;68.10
20487;DHT22;10402;49.012;8.370;2023-04-24T11:08:43;13.50;68.40
20487;DHT22;10402;49.012;8.370;2023-04-24T11:11:14;13.50;68.60
20487;DHT22;10402;49.012;8.370;2023-04-24T11:16:30;13.60;69.00
20487;DHT22;10402;49.012;8.370;2023-04-24T11:22:00;13.60;69.70
20487;DHT22;10402;49.012;8.370;2023-04-24T11:27:16;13.50;69.80
20487;DHT22;10402;49.012;8.370;2023-04-24T11:29:51;13.50;70.10
20487;DHT22;10402;49.012;8.370;2023-04-24T11:32:34;13.40;69.50
20487;DHT22;10402;49.012;8.370;2023-04-24T11:35:21;13.40;69.70
20487;DHT22;10402;49.012;8.370;2023-04-24T11:37:51;13.40;69.50
20487;DHT22;10402;49.012;8.370;2023-04-24T11:40:19;13.50;69.50
20487;DHT22;10402;49.012;8.370;2023-04-24T11:42:51;13.50;69.30
20487;DHT22;10402;49.012;8.370;2023-04-24T11:45:25;13.50;69.20
20487;DHT22;10402;49.012;8.370;2023-04-24T11:47:51;13.50;69.30
20487;DHT22;10402;49.012;8.370;2023-04-24T11:50:18;13.60;69.50
20487;DHT22;10402;49.012;8.370;2023-04-24T11:52:45;13.50;69.60
20487;DHT22;10402;49.012;8.370;2023-04-24T11:57:41;13.50;69.80
20487;DHT22;10402;49.012;8.370;2023-04-24T12:00:15;13.60;70.00
20487;DHT22;10402;49.012;8.370;2023-04-24T12:02:42;13.60;70.00
20487;DHT22;10402;49.012;8.370;2023-04-24T12:05:07;13.70;70.10
20487;DHT22;10402;49.012;8.370;2023-04-24T12:07:41;13.80;70.20
20487;DHT22;10402;49.012;8.370;2023-04-24T12:10:08;13.90;78.90
20487;DHT22;10402;49.012;8.370;2023-04-24T12:12:34;13.90;70.00
20487;DHT22;10402;49.012;8.370;2023-04-24T12:15:01;14.00;69.90
20487;DHT22;10402;49.012;8.370;2023-04-24T12:17:31;14.10;69.50
20487;DHT22;10402;49.012;8.370;2023-04-24T12:20:02;14.20;69.50
20487;DHT22;10402;49.012;8.370;2023-04-24T12:22:43;14.30;72.50
20487;DHT22;10402;49.012;8.370;2023-04-24T12:25:10;14.30;69.20
20487;DHT22;10402;49.012;8.370;2023-04-24T12:27:35;14.20;68.90
20487;DHT22;10402;49.012;8.370;2023-04-24T12:30:04;14.20;68.80
20487;DHT22;10402;49.012;8.370;2023-04-24T12:32:30;14.20;68.70
20487;DHT22;10402;49.012;8.370;2023-04-24T12:34:55;14.30;68.50
20487;DHT22;10402;49.012;8.370;2023-04-24T12:37:24;14.30;68.30
20487;DHT22;10402;49.012;8.370;2023-04-24T12:40:07;14.30;68.00
20487;DHT22;10402;49.012;8.370;2023-04-24T12:42:34;14.30;67.70
20487;DHT22;10402;49.012;8.370;2023-04-24T12:45:05;14.20;67.20
20487;DHT22;10402;49.012;8.370;2023-04-24T12:47:32;14.20;67.80
20487;DHT22;10402;49.012;8.370;2023-04-24T12:49:58;14.20;66.40
20487;DHT22;10402;49.012;8.370;2023-04-24T12:52:25;14.20;66.20
20487;DHT22;10402;49.012;8.370;2023-04-24T12:54:58;14.20;66.00
20487;DHT22;10402;49.012;8.370;2023-04-24T12:57:25;14.30;66.40
20487;DHT22;10402;49.012;8.370;2023-04-24T12:59:52;14.40;66.00
20487;DHT22;10402;49.012;8.370;2023-04-24T13:02:17;14.40;65.90
20487;DHT22;10402;49.012;8.370;2023-04-24T13:04:46;14.50;65.60
20487;DHT22;10402;49.012;8.370;2023-04-24T13:07:13;14.50;65.00
20487;DHT22;10402;49.012;8.370;2023-04-24T13:09:39;14.50;64.70
20487;DHT22;10402;49.012;8.370;2023-04-24T13:12:05;14.40;64.80
20487;DHT22;10402;49.012;8.370;2023-04-24T13:14:33;14.50;65.10
20487;DHT22;10402;49.012;8.370;2023-04-24T13:16:59;14.40;65.00
20487;DHT22;10402;49.012;8.370;2023-04-24T13:19:26;14.40;65.30
20487;DHT22;10402;49.012;8.370;2023-04-24T13:21:52;14.40;65.40
20487;DHT22;10402;49.012;8.370;2023-04-24T13:24:18;14.50;65.40
20487;DHT22;10402;49.012;8.370;2023-04-24T13:26:43;14.60;65.50
20487;DHT22;10402;49.012;8.370;2023-04-24T13:29:09;14.70;65.30
20487;DHT22;10402;49.012;8.370;2023-04-24T13:31:35;14.70;64.60
20487;DHT22;10402;49.012;8.370;2023-04-24T13:34:02;14.70;64.70
20487;DHT22;10402;49.012;8.370;2023-04-24T13:36:28;14.70;64.20
20487;DHT22;10402;49.012;8.370;2023-04-24T13:38:54;14.60;63.90
20487;DHT22;10402;49.012;8.370;2023-04-24T13:41:19;14.70;64.20
20487;DHT22;10402;49.012;8.370;2023-04-24T13:43:45;14.70;64.40
20487;DHT22;10402;49.012;8.370;2023-04-24T13:46:10;14.70;64.10
20487;DHT22;10402;49.012;8.370;2023-04-24T13:48:36;14.70;64.00
20487;DHT22;10402;49.012;8.370;2023-04-24T13:51:01;14.70;63.70
20487;DHT22;10402;49.012;8.370;2023-04-24T13:53:27;14.70;63.90
20487;DHT22;10402;49.012;8.370;2023-04-24T13:55:53;14.70;64.00
20487;DHT22;10402;49.012;8.370;2023-04-24T13:58:18;14.80;63.80
20487;DHT22;10402;49.012;8.370;2023-04-24T14:00:44;14.80;63.80
20487;DHT22;10402;49.012;8.370;2023-04-24T14:03:10;14.80;63.60
20487;DHT22;10402;49.012;8.370;2023-04-24T14:05:36;14.80;63.90
20487;DHT22;10402;49.012;8.370;2023-04-24T14:08:01;14.80;64.10
20487;DHT22;10402;49.012;8.370;2023-04-24T14:10:27;14.80;64.10
20487;DHT22;10402;49.012;8.370;2023-04-24T14:12:53;14.80;64.10
20487;DHT22;10402;49.012;8.370;2023-04-24T14:15:19;14.80;64.10
20487;DHT22;10402;49.012;8.370;2023-04-24T14:17:44;14.80;64.50
20487;DHT22;10402;49.012;8.370;2023-04-24T14:20:11;14.70;65.50
20487;DHT22;10402;49.012;8.370;2023-04-24T14:22:37;14.60;66.70
20487;DHT22;10402;49.012;8.370;2023-04-24T14:25:03;14.50;67.40
20487;DHT22;10402;49.012;8.370;2023-04-24T14:27:29;14.50;68.20
20487;DHT22;10402;49.012;8.370;2023-04-24T14:29:55;14.40;69.70
20487;DHT22;10402;49.012;8.370;2023-04-24T14:32:21;14.50;69.20
20487;DHT22;10402;49.012;8.370;2023-04-24T14:34:46;14.50;69.40
20487;DHT22;10402;49.012;8.370;2023-04-24T14:37:12;14.50;69.50
20487;DHT22;10402;49.012;8.370;2023-04-24T14:39:37;14.60;69.60
20487;DHT22;10402;49.012;8.370;2023-04-24T14:42:03;14.60;69.50
20487;DHT22;10402;49.012;8.370;2023-04-24T14:44:28;14.60;69.40
20487;DHT22;10402;49.012;8.370;2023-04-24T14:46:54;14.60;69.50
20487;DHT22;10402;49.012;8.370;2023-04-24T14:49:20;14.60;69.60
20487;DHT22;10402;49.012;8.370;2023-04-24T14:51:45;14.70;69.60
20487;DHT22;10402;49.012;8.370;2023-04-24T14:54:11;14.70;70.40
20487;DHT22;10402;49.012;8.370;2023-04-24T14:56:37;14.80;69.50
20487;DHT22;10402;49.012;8.370;2023-04-24T14:59:04;14.80;69.20
20487;DHT22;10402;49.012;8.370;2023-04-24T15:01:30;14.80;69.00
20487;DHT22;10402;49.012;8.370;2023-04-24T15:03:55;14.80;69.00
20487;DHT22;10402;49.012;8.370;2023-04-24T15:06:21;14.80;68.90
20487;DHT22;10402;49.012;8.370;2023-04-24T15:08:46;14.80;69.60
20487;DHT22;10402;49.012;8.370;2023-04-24T15:11:12;14.80;68.70
20487;DHT22;10402;49.012;8.370;2023-04-24T15:13:38;14.80;68.60
20487;DHT22;10402;49.012;8.370;2023-04-24T15:16:03;14.80;68.40
20487;DHT22;10402;49.012;8.370;2023-04-24T15:18:30;14.70;68.30
20487;DHT22;10402;49.012;8.370;2023-04-24T15:20:56;14.70;68.50
20487;DHT22;10402;49.012;8.370;2023-04-24T15:23:21;14.70;68.40
20487;DHT22;10402;49.012;8.370;2023-04-24T15:25:47;14.70;68.50
20487;DHT22;10402;49.012;8.370;2023-04-24T15:28:13;14.70;68.40
20487;DHT22;10402;49.012;8.370;2023-04-24T15:30:39;14.60;68.20
20487;DHT22;10402;49.012;8.370;2023-04-24T15:33:04;14.60;68.10
20487;DHT22;10402;49.012;8.370;2023-04-24T15:35:30;14.60;68.20
20487;DHT22;10402;49.012;8.370;2023-04-24T15:37:56;14.50;68.50
20487;DHT22;10402;49.012;8.370;2023-04-24T15:40:21;14.40;68.90
20487;DHT22;10402;49.012;8.370;2023-04-24T15:42:47;14.30;69.50